Date,TemperatureHighF,TemperatureAvgF,TemperatureLowF,DewpointHighF,DewpointAvgF,DewpointLowF,HumidityHigh,HumidityAvg,HumidityLow,PressureMaxIn,PressureMinIn,WindSpeedMaxMPH,WindSpeedAvgMPH,GustSpeedMaxMPH,PrecipitationSumIn
2013-5-1,66,59,53,57,54,52,98,85,68,30.32,30.19,19,2,19,0.00
2013-5-2,60,56,52,56,54,52,97,92,84,30.33,30.25,11,2,11,0.25
2013-5-3,63,58,54,54,52,48,97,81,65,30.27,30.13,21,3,21,0.00
2013-5-4,59,53,48,50,46,42,95,77,65,30.16,30.02,21,5,21,0.01
2013-5-5,55,49,46,55,48,44,98,96,92,30.08,29.86,21,4,22,2.70
2013-5-6,70,58,48,60,52,41,99,83,37,29.91,29.82,23,2,23,1.34
2013-5-7,68,55,44,57,50,43,99,86,49,29.96,29.87,8,0,8,0.18
2013-5-8,75,60,50,59,55,50,99,85,51,30.03,29.93,10,0,10,0.06
2013-5-9,83,65,47,59,54,47,99,72,36,30.09,30.01,10,1,10,4.29
2013-5-10,85,68,50,64,57,50,98,72,41,30.08,29.94,18,2,18,0.00
2013-5-11,80,68,59,63,60,57,98,77,50,29.95,29.77,22,1,22,0.56
2013-5-12,69,60,47,61,44,32,99,63,27,30.06,29.85,21,2,21,0.56
2013-5-13,69,54,35,43,34,25,96,53,20,30.21,30.06,17,1,17,0.00
2013-5-14,77,57,35,51,41,34,97,61,28,30.28,30.07,16,1,16,0.56
2013-5-15,94,72,49,62,55,47,96,62,27,30.07,29.92,17,1,17,0.56
2013-5-16,89,72,60,64,57,49,94,62,28,30.01,29.93,13,1,13,0.00
2013-5-17,85,70,54,63,59,53,98,72,40,30.08,29.99,12,1,12,0.00
2013-5-18,70,65,60,68,64,59,98,94,88,30.15,30.05,9,0,9,0.29
2013-5-19,80,70,64,70,66,64,98,90,67,30.11,30.00,10,1,10,0.54
2013-5-20,84,71,63,70,66,63,99,86,56,30.14,30.00,7,1,7,0.31
2013-5-21,88,73,60,71,66,59,99,81,49,30.05,29.91,11,1,11,0.00
2013-5-22,86,68,61,71,64,60,98,88,52,30.00,29.89,14,1,14,1.71
2013-5-23,82,69,61,69,63,56,99,83,56,29.99,29.81,10,1,10,0.20
2013-5-24,70,62,46,59,47,35,95,60,28,30.22,29.88,25,4,25,0.00
2013-5-25,80,60,39,49,42,36,98,59,22,30.32,30.17,12,1,12,0.00
2013-5-26,79,64,53,56,50,43,93,64,32,30.29,30.16,9,1,9,0.00
2013-5-27,82,67,49,60,56,48,98,71,39,30.29,30.12,11,1,11,0.00
2013-5-28,86,72,56,66,61,55,97,73,49,30.20,30.12,15,1,15,0.00
2013-5-29,87,74,59,67,62,57,95,70,44,30.22,30.13,14,1,14,0.00
2013-5-30,86,71,56,68,62,56,98,75,46,30.27,30.16,13,1,13,0.00
2013-5-31,86,73,59,68,63,58,98,74,46,30.22,30.10,12,1,12,0.00